Time;durP1;ratioP1;P1;durP2;ratioP2;P2;SDS_P1;SDS_P2;PMS_P1;PMS_P2;Temp;Humidity;BMP_temperature;BMP_pressure;BME280_temperature;BME280_humidity;BME280_pressure;Samples;Min_cycle;Max_cycle;Signal;HPM_P1;HPM_P2
2023/05/27 00:01:46;;;;;;;;;9.33;7.33;;;;;16.97;53.00;102247.91;5080633;27;45277;-82
2023/05/27 00:04:32;;;;;;;;;6.00;5.67;;;;;16.36;53.26;102157.44;5080595;28;45378;-82
2023/05/27 00:07:08;;;;;;;;;8.00;6.33;;;;;16.63;53.90;102205.97;5053886;28;45501;-82
2023/05/27 00:10:11;;;;;;;;;;;;;;;;;;;;;
2023/05/27 00:13:10;;;;;;;;;14.00;6.67;;;;;16.33;53.08;102160.25;5056909;28;74019;-84
2023/05/27 00:15:55;;;;;;;;;11.67;5.33;;;;;16.29;52.76;102152.50;5044035;28;46709;-82
2023/05/27 00:18:55;;;;;;;;;9.00;6.00;;;;;16.62;52.98;102217.63;5063559;28;45920;-82
2023/05/27 00:21:52;;;;;;;;;9.00;7.67;;;;;16.27;54.08;102173.91;5002974;28;45383;-82
2023/05/27 00:24:59;;;;;;;;;6.00;5.00;;;;;16.75;54.20;102268.66;5017168;28;45593;-82
2023/05/27 00:27:37;;;;;;;;;5.00;5.00;;;;;16.72;52.88;102253.59;5048710;28;45869;-82
2023/05/27 00:30:24;;;;;;;;;11.00;6.67;;;;;16.04;53.25;102153.69;5056492;28;45515;-82
2023/05/27 00:33:08;;;;;;;;;14.00;6.67;;;;;16.06;53.12;102166.97;5069469;28;45537;-82
2023/05/27 00:35:46;;;;;;;;;5.67;5.67;;;;;16.59;54.05;102260.50;5064145;28;45431;-81
2023/05/27 00:38:49;;;;;;;;;8.67;6.67;;;;;16.57;53.24;102265.06;5047452;28;45441;-81
2023/05/27 00:41:26;;;;;;;;;10.67;7.67;;;;;16.11;53.41;102171.13;5050790;28;45270;-84
2023/05/27 00:44:32;;;;;;;;;6.00;5.00;;;;;16.48;53.89;102238.78;5058192;28;45502;-82
2023/05/27 00:47:29;;;;;;;;;10.00;6.67;;;;;16.44;53.79;102238.03;5017033;28;45799;-82
2023/05/27 00:50:25;;;;;;;;;7.00;6.00;;;;;16.17;53.31;102216.22;5046817;28;45717;-83
2023/05/27 00:53:05;;;;;;;;;8.33;7.00;;;;;16.24;53.46;102232.81;5041314;28;45417;-82
2023/05/27 00:55:46;;;;;;;;;5.67;5.33;;;;;15.64;53.71;102132.50;5051483;28;45338;-82
2023/05/27 00:58:42;;;;;;;;;9.33;7.00;;;;;16.28;53.30;102255.75;5047995;28;45355;-82
2023/05/27 01:01:14;;;;;;;;;8.33;5.33;;;;;15.79;54.50;102161.13;5046560;28;47912;-82
2023/05/27 01:03:57;;;;;;;;;6.33;6.00;;;;;15.68;53.37;102139.44;5056096;28;45526;-82
2023/05/27 01:07:07;;;;;;;;;7.00;6.00;;;;;16.23;53.62;102235.56;5047668;28;45661;-82
2023/05/27 01:10:22;;;;;;;;;11.00;6.00;;;;;15.82;54.07;102179.66;5039038;28;45600;-82
2023/05/27 01:13:11;;;;;;;;;7.00;6.00;;;;;16.17;54.10;102236.69;5048087;28;45515;-81
2023/05/27 01:16:01;;;;;;;;;8.00;6.67;;;;;15.56;54.79;102143.53;5048566;28;45408;-82
2023/05/27 01:18:34;;;;;;;;;7.00;7.00;;;;;15.52;55.78;102127.75;5056836;28;45383;-81
2023/05/27 01:21:11;;;;;;;;;10.33;6.33;;;;;15.96;54.86;102224.38;5050352;28;45554;-81
2023/05/27 01:23:43;;;;;;;;;9.33;6.67;;;;;16.02;53.50;102232.09;5053785;28;47347;-81
2023/05/27 01:26:15;;;;;;;;;7.00;5.00;;;;;15.40;54.38;102126.50;5075154;28;45379;-82
2023/05/27 01:28:55;;;;;;;;;9.00;5.00;;;;;16.01;54.48;102227.69;5049434;28;45340;-82
2023/05/27 01:32:56;;;;;;;;;5.67;5.67;;;;;15.45;54.48;102139.59;5057377;28;45635;-82
2023/05/27 01:35:23;;;;;;;;;8.67;4.67;;;;;15.37;54.03;102133.75;5026518;28;45661;-82
2023/05/27 01:38:09;;;;;;;;;5.00;4.67;;;;;15.35;55.52;102125.81;5061117;28;45487;-82
2023/05/27 01:41:02;;;;;;;;;5.33;3.33;;;;;15.91;54.49;102221.03;5053562;28;45465;-83
2023/05/27 01:43:39;;;;;;;;;9.00;6.00;;;;;15.49;54.32;102149.22;5040660;28;45416;-81
2023/05/27 01:46:30;;;;;;;;;8.33;5.00;;;;;15.75;53.86;102217.34;5059875;28;45809;-82
2023/05/27 01:49:35;;;;;;;;;6.67;6.33;;;;;15.83;54.33;102224.09;5036611;28;45349;-82
2023/05/27 01:52:07;;;;;;;;;4.33;4.33;;;;;15.32;55.25;102130.44;5057353;28;45413;-83
2023/05/27 01:54:38;;;;;;;;;3.67;3.67;;;;;15.43;54.83;102150.34;5043589;28;45511;-82
2023/05/27 01:57:34;;;;;;;;;7.33;5.00;;;;;15.22;54.25;102121.13;5037130;28;47168;-81
2023/05/27 02:00:01;;;;;;;;;5.67;5.33;;;;;15.26;55.04;102142.25;5049379;28;45496;-82
2023/05/27 02:02:27;;;;;;;;;5.00;4.00;;;;;15.73;54.64;102227.25;5046835;28;45480;-83
2023/05/27 02:05:08;;;;;;;;;7.33;5.00;;;;;15.04;55.41;102115.69;5062402;28;45451;-83
2023/05/27 02:08:02;;;;;;;;;12.33;6.67;;;;;15.19;54.59;102155.91;5048227;28;45785;-82
2023/05/27 02:14:05;;;;;;;;;10.33;6.00;;;;;14.96;54.17;102103.63;5068952;28;45252;-83
2023/05/27 02:17:27;;;;;;;;;5.33;5.33;;;;;15.58;54.24;102220.78;5058722;28;45658;-82
2023/05/27 02:20:25;;;;;;;;;6.00;6.00;;;;;15.56;54.78;102215.53;5063227;28;45634;-82
2023/05/27 02:23:12;;;;;;;;;7.00;5.00;;;;;15.18;54.38;102175.50;5064746;28;45482;-83
2023/05/27 02:25:50;;;;;;;;;8.00;6.67;;;;;14.99;53.81;102149.66;5067759;28;45414;-82
2023/05/27 02:28:33;;;;;;;;;6.33;4.67;;;;;15.46;53.77;102218.66;5032342;28;45473;-83
2023/05/27 02:31:15;;;;;;;;;6.00;6.00;;;;;15.45;53.61;102235.59;5035110;28;45451;-83
2023/05/27 02:34:06;;;;;;;;;8.33;5.00;;;;;14.85;54.08;102130.78;5016516;28;45357;-84
2023/05/27 02:36:55;;;;;;;;;5.00;5.00;;;;;14.89;53.85;102115.50;5025882;28;45439;-84
2023/05/27 02:49:14;;;;;;;;;7.00;5.00;;;;;15.13;53.94;102171.25;5033861;28;45500;-84
2023/05/27 02:52:12;;;;;;;;;4.67;4.00;;;;;14.70;54.33;102102.13;5040999;28;45592;-84
2023/05/27 02:55:18;;;;;;;;;7.00;4.00;;;;;15.16;53.97;102177.38;5019974;28;46844;-84
2023/05/27 02:57:45;;;;;;;;;5.00;5.00;;;;;14.96;54.89;102140.94;5044605;28;45354;-84
2023/05/27 03:03:26;;;;;;;;;5.67;5.67;;;;;14.73;54.72;102141.06;5073539;28;45238;-84
2023/05/27 03:05:54;;;;;;;;;7.67;6.00;;;;;15.06;54.37;102190.22;5062982;28;46664;-84
2023/05/27 03:08:20;;;;;;;;;9.33;7.00;;;;;14.72;54.93;102142.03;5063214;28;45352;-83
2023/05/27 03:10:57;;;;;;;;;6.67;6.00;;;;;14.47;54.61;102095.13;5067368;28;45265;-84
2023/05/27 03:13:26;;;;;;;;;6.00;5.00;;;;;14.73;55.64;102147.25;5084563;28;45444;-83
2023/05/27 03:19:43;;;;;;;;;3.00;3.00;;;;;14.75;54.93;102155.19;5089813;28;45221;-82
2023/05/27 03:22:28;;;;;;;;;6.00;4.67;;;;;14.55;54.33;102114.31;5077808;28;45359;-83
2023/05/27 03:25:11;;;;;;;;;5.00;4.00;;;;;14.42;55.97;102098.94;5066316;28;45508;-83
2023/05/27 03:28:00;;;;;;;;;;;;;;;;;;;;;
2023/05/27 03:31:04;;;;;;;;;5.67;5.67;;;;;14.38;55.91;102095.53;5055335;28;72883;-83
2023/05/27 03:33:35;;;;;;;;;6.67;6.67;;;;;14.47;55.34;102103.13;5062345;28;45543;-83
2023/05/27 03:36:07;;;;;;;;;6.00;5.00;;;;;14.27;54.77;102078.22;5065624;28;45386;-84
2023/05/27 03:38:33;;;;;;;;;7.67;5.67;;;;;14.97;54.71;102215.47;5063102;28;46514;-83
2023/05/27 03:41:19;;;;;;;;;7.00;6.33;;;;;14.96;54.50;102203.09;5081028;28;45684;-83
2023/05/27 03:43:45;;;;;;;;;6.33;5.33;;;;;14.67;54.66;102144.00;5063942;28;45449;-84
2023/05/27 03:46:11;;;;;;;;;11.33;7.00;;;;;14.42;54.52;102105.13;5062631;28;45534;-82
2023/05/27 03:48:46;;;;;;;;;8.67;5.00;;;;;14.42;54.48;102104.25;5068222;28;46928;-83
2023/05/27 03:51:40;;;;;;;;;7.67;5.00;;;;;14.40;55.65;102114.09;5058526;28;45380;-84
2023/05/27 03:57:56;;;;;;;;;7.33;6.00;;;;;14.50;56.61;102124.28;5068281;28;45414;-83
2023/05/27 04:00:48;;;;;;;;;8.00;5.33;;;;;14.59;56.53;102155.00;5045610;28;46483;-83
2023/05/27 04:03:17;;;;;;;;;6.67;5.67;;;;;14.16;57.03;102080.50;5066251;28;45454;-82
2023/05/27 04:05:43;;;;;;;;;6.00;5.00;;;;;14.49;56.49;102143.88;5064701;28;45395;-82
2023/05/27 04:08:14;;;;;;;;;6.00;6.00;;;;;14.14;56.89;102083.22;5066798;28;45575;-82
2023/05/27 04:10:39;;;;;;;;;5.00;5.00;;;;;14.41;57.73;102145.09;5069569;28;47213;-83
2023/05/27 04:13:05;;;;;;;;;9.33;6.33;;;;;14.32;56.77;102150.78;5048935;28;45486;-83
2023/05/27 04:15:30;;;;;;;;;9.67;6.00;;;;;14.31;57.18;102144.59;5057473;28;45376;-84
2023/05/27 04:18:02;;;;;;;;;7.33;4.00;;;;;14.37;57.98;102155.00;5060623;28;45332;-83
2023/05/27 04:20:58;;;;;;;;;8.33;5.67;;;;;14.50;56.71;102166.00;5055561;28;46801;-83
2023/05/27 04:23:24;;;;;;;;;8.00;5.33;;;;;13.99;57.79;102100.69;5052277;28;45877;-83
2023/05/27 04:25:53;;;;;;;;;7.00;5.67;;;;;14.10;57.55;102113.56;5048463;28;45462;-84
2023/05/27 04:28:48;;;;;;;;;7.00;5.00;;;;;14.08;58.95;102110.94;5068634;28;45544;-84
2023/05/27 04:31:15;;;;;;;;;9.00;5.00;;;;;14.00;59.66;102113.03;5057718;28;46832;-84
2023/05/27 04:34:15;;;;;;;;;8.67;5.67;;;;;14.43;60.10;102191.19;5057463;28;45441;-83
2023/05/27 04:37:20;;;;;;;;;9.67;6.67;;;;;14.12;59.68;102127.66;5056607;28;45316;-83
2023/05/27 04:40:12;;;;;;;;;6.00;6.00;;;;;14.48;59.51;102207.81;5070618;28;45426;-83
2023/05/27 04:43:08;;;;;;;;;7.67;7.00;;;;;13.78;59.25;102080.25;5049711;28;46421;-84
2023/05/27 04:45:49;;;;;;;;;;;;;;;;;;;;;
2023/05/27 04:48:26;;;;;;;;;9.00;5.00;;;;;14.08;60.09;102137.53;5056208;28;69183;-83
2023/05/27 04:51:18;;;;;;;;;9.00;7.00;;;;;13.85;60.04;102096.81;5059445;28;45871;-84
2023/05/27 04:53:48;;;;;;;;;8.33;7.00;;;;;14.00;60.53;102104.22;5068983;28;47281;-83
2023/05/27 04:56:18;;;;;;;;;5.00;5.00;;;;;13.93;59.87;102100.94;5065200;28;45330;-83
2023/05/27 04:58:51;;;;;;;;;7.67;7.00;;;;;14.17;60.54;102114.16;5052089;28;45435;-82
2023/05/27 05:01:48;;;;;;;;;5.67;5.67;;;;;14.40;58.86;102149.56;5064452;28;45677;-83
2023/05/27 05:07:19;;;;;;;;;5.67;4.67;;;;;14.59;61.03;102184.28;5056393;28;45431;-82
2023/05/27 05:09:49;;;;;;;;;7.67;6.00;;;;;14.78;60.83;102205.69;5041918;28;45447;-82
2023/05/27 05:12:25;;;;;;;;;;;;;;;;;;;;;
2023/05/27 05:15:24;;;;;;;;;9.00;7.33;;;;;14.37;61.01;102128.38;5064588;28;75213;-82
2023/05/27 05:18:00;;;;;;;;;10.00;5.33;;;;;14.67;60.05;102158.19;5058060;28;45470;-82
2023/05/27 05:21:00;;;;;;;;;9.00;7.33;;;;;14.46;61.11;102128.00;5062461;28;45422;-82
2023/05/27 05:23:59;;;;;;;;;5.00;5.00;;;;;14.48;60.01;102119.97;5057152;28;45514;-82
2023/05/27 05:26:25;;;;;;;;;8.00;5.00;;;;;15.06;59.61;102209.75;5048015;28;45537;-82
2023/05/27 05:29:06;;;;;;;;;;;;;;;;;;;;;
2023/05/27 05:31:46;;;;;;;;;9.00;5.00;;;;;14.73;59.43;102117.97;5052038;28;67757;-82
2023/05/27 05:37:49;;;;;;;;;9.33;6.00;;;;;14.84;60.56;102115.72;5054948;28;46529;-82
2023/05/27 05:40:40;;;;;;;;;10.67;6.33;;;;;15.42;58.01;102203.72;5068428;27;45403;-83
2023/05/27 05:43:22;;;;;;;;;7.00;4.67;;;;;15.26;56.61;102150.25;5050271;28;45427;-82
2023/05/27 05:46:24;;;;;;;;;6.33;4.67;;;;;15.16;57.16;102135.59;5070023;27;45341;-82
2023/05/27 05:49:10;;;;;;;;;6.33;5.67;;;;;15.22;56.79;102137.97;5055319;28;45833;-83
2023/05/27 05:51:49;;;;;;;;;10.00;6.67;;;;;15.48;58.34;102188.34;5054627;28;45324;-82
2023/05/27 05:54:27;;;;;;;;;;;;;;;;;;;;;
2023/05/27 05:57:20;;;;;;;;;;;;;;;;;;;;;
2023/05/27 06:00:23;;;;;;;;;10.00;7.00;;;;;15.31;56.44;102124.25;5055191;28;73662;-82
2023/05/27 06:06:45;;;;;;;;;;;;;;;;;;;;;
2023/05/27 06:09:33;;;;;;;;;5.00;5.00;;;;;15.56;55.58;102108.00;5032746;28;73093;-82
2023/05/27 06:12:45;;;;;;;;;6.00;6.00;;;;;16.11;56.36;102199.63;5056320;28;45758;-82
2023/05/27 06:15:45;;;;;;;;;10.67;7.67;;;;;15.57;55.36;102075.91;5054483;28;45461;-82
2023/05/27 06:24:34;;;;;;;;;11.33;5.33;;;;;16.54;55.02;102201.94;5045467;28;45690;-84
2023/05/27 06:27:29;;;;;;;;;8.00;6.67;;;;;16.42;54.61;102175.84;5049369;28;45520;-83
2023/05/27 06:33:34;;;;;;;;;7.00;5.67;;;;;16.66;55.89;102206.69;5057913;27;45373;-81
2023/05/27 06:36:09;;;;;;;;;7.33;6.00;;;;;16.87;54.99;102228.81;5058571;28;46304;-81
2023/05/27 06:38:40;;;;;;;;;7.00;6.00;;;;;16.72;54.61;102156.59;5058210;28;46079;-81
2023/05/27 06:41:23;;;;;;;;;12.67;6.00;;;;;16.87;53.65;102178.03;5060087;28;45461;-82
2023/05/27 06:43:49;;;;;;;;;6.67;6.00;;;;;16.81;53.22;102146.28;5059655;28;45596;-82
2023/05/27 06:46:15;;;;;;;;;10.33;7.00;;;;;16.58;53.50;102117.22;5054343;28;46415;-82
2023/05/27 06:48:50;;;;;;;;;7.00;7.00;;;;;16.95;53.66;102164.28;5057199;28;45451;-81
2023/05/27 06:51:26;;;;;;;;;7.00;6.00;;;;;17.23;53.58;102195.75;5053792;28;45393;-82
2023/05/27 06:54:27;;;;;;;;;7.00;4.33;;;;;17.08;53.49;102128.78;5059549;28;45382;-82
2023/05/27 06:57:16;;;;;;;;;5.67;5.67;;;;;17.40;53.39;102172.53;5056631;28;47092;-81
2023/05/27 06:59:48;;;;;;;;;9.67;7.00;;;;;17.23;53.29;102136.94;5053345;28;45494;-81
2023/05/27 07:02:37;;;;;;;;;8.00;6.33;;;;;17.27;53.03;102126.00;5074979;28;45570;-81
2023/05/27 07:05:19;;;;;;;;;;;;;;;;;;;;;
2023/05/27 07:08:04;;;;;;;;;8.00;8.00;;;;;17.32;53.41;102115.91;5058179;28;74250;-82
2023/05/27 07:10:55;;;;;;;;;10.67;7.67;;;;;17.98;52.93;102191.63;5052725;28;45528;-80
2023/05/27 07:13:55;;;;;;;;;6.00;6.00;;;;;17.56;53.11;102100.38;5051226;28;45604;-81
2023/05/27 07:16:56;;;;;;;;;;;;;;;;;;;;;
2023/05/27 07:19:43;;;;;;;;;6.00;5.00;;;;;17.52;52.29;102067.53;5059495;28;74575;-80
2023/05/27 07:22:26;;;;;;;;;8.33;6.33;;;;;18.00;52.29;102141.53;5046970;28;45447;-83
2023/05/27 07:34:00;;;;;;;;;5.33;5.33;;;;;18.46;52.17;102161.19;5078332;28;45548;-81
2023/05/27 07:36:49;;;;;;;;;;;;;;;;;;;;;
2023/05/27 07:39:51;;;;;;;;;8.67;7.00;;;;;18.71;51.92;102160.66;5071716;28;74152;-80
2023/05/27 07:42:39;;;;;;;;;13.67;7.00;;;;;18.32;51.55;102054.00;5063061;28;45528;-79
2023/05/27 07:45:13;;;;;;;;;7.00;6.67;;;;;18.37;52.40;102059.06;5059555;28;45429;-78
2023/05/27 07:48:00;;;;;;;;;10.67;7.67;;;;;18.77;51.68;102125.44;5073528;28;45576;-79
2023/05/27 07:50:57;;;;;;;;;10.67;7.33;;;;;19.14;51.98;102159.75;5058458;28;45548;-78
2023/05/27 07:53:38;;;;;;;;;9.00;6.67;;;;;19.18;50.90;102158.63;5082635;27;46264;-80
2023/05/27 07:56:19;;;;;;;;;7.67;6.67;;;;;19.25;51.50;102157.28;5058976;28;45486;-78
2023/05/27 07:59:05;;;;;;;;;6.67;4.67;;;;;19.45;51.36;102156.09;5058800;28;45453;-81
2023/05/27 08:01:57;;;;;;;;;6.67;5.00;;;;;19.04;50.91;102085.34;5043506;28;45631;-80
2023/05/27 08:08:37;;;;;;;;;;;;;;;;;;;;;
2023/05/27 08:11:17;;;;;;;;;6.00;6.00;;;;;19.53;50.78;102085.84;5090700;27;68848;-78
2023/05/27 08:13:59;;;;;;;;;9.67;6.33;;;;;20.04;49.92;102146.03;5048476;28;46328;-79
2023/05/27 08:16:26;;;;;;;;;7.33;5.33;;;;;19.91;50.29;102108.38;5062446;28;46430;-78
2023/05/27 08:18:52;;;;;;;;;10.33;8.33;;;;;20.24;50.73;102121.41;5060675;28;45436;-79
2023/05/27 08:21:31;;;;;;;;;8.67;6.67;;;;;20.04;50.67;102060.94;5057805;28;45526;-78
2023/05/27 08:24:06;;;;;;;;;9.67;7.33;;;;;20.70;50.02;102135.31;5068778;28;45476;-78
2023/05/27 08:27:01;;;;;;;;;9.67;7.00;;;;;20.72;48.78;102111.84;5050306;28;47670;-78
2023/05/27 08:33:45;;;;;;;;;9.33;7.33;;;;;20.63;49.28;102048.84;5063754;27;45232;-78
2023/05/27 08:37:01;;;;;;;;;9.00;7.67;;;;;20.94;48.49;102065.53;5031825;28;45436;-78
2023/05/27 08:39:45;;;;;;;;;6.00;5.67;;;;;20.75;49.27;102031.84;5036207;28;45467;-78
2023/05/27 08:42:14;;;;;;;;;7.00;7.00;;;;;21.21;48.70;102080.59;5073412;28;45555;-80
2023/05/27 08:44:55;;;;;;;;;10.00;5.00;;;;;21.44;47.74;102132.78;5079330;28;45440;-78
2023/05/27 08:47:59;;;;;;;;;9.67;5.00;;;;;20.95;48.51;102034.94;5075275;27;45479;-79
2023/05/27 08:50:59;;;;;;;;;5.67;5.00;;;;;21.17;47.30;102051.34;5060446;28;46601;-79
2023/05/27 08:53:38;;;;;;;;;8.00;6.67;;;;;21.34;49.09;102047.41;5067322;27;45371;-78
2023/05/27 08:56:21;;;;;;;;;6.67;4.67;;;;;21.63;48.68;102052.38;5058031;28;45367;-79
2023/05/27 08:58:53;;;;;;;;;11.00;7.33;;;;;21.95;48.12;102090.47;5062914;28;45503;-80
2023/05/27 09:01:48;;;;;;;;;11.33;8.33;;;;;21.88;47.98;102054.13;5060747;28;45533;-79
2023/05/27 09:04:39;;;;;;;;;7.33;5.67;;;;;21.88;46.39;102067.59;5057702;28;45567;-79
2023/05/27 09:07:12;;;;;;;;;9.33;5.00;;;;;22.23;47.08;102102.72;5043207;28;45474;-79
2023/05/27 09:10:07;;;;;;;;;7.00;7.00;;;;;22.17;47.22;102077.09;5026255;28;45598;-79
2023/05/27 09:13:12;;;;;;;;;5.00;3.67;;;;;22.04;46.05;102033.19;5053234;28;47227;-79
2023/05/27 09:16:06;;;;;;;;;7.67;7.67;;;;;22.32;45.92;102077.75;5025315;28;45472;-80
2023/05/27 09:22:17;;;;;;;;;4.67;1.67;;;;;22.39;46.49;102026.91;5053031;28;45563;-78
2023/05/27 09:24:56;;;;;;;;;10.00;9.33;;;;;22.71;47.03;102055.81;5038460;28;46987;-79
2023/05/27 09:28:09;;;;;;;;;7.00;6.33;;;;;22.50;46.58;102008.06;5039156;28;45496;-79
2023/05/27 09:30:54;;;;;;;;;7.00;7.00;;;;;22.47;45.80;101981.34;5038564;28;45550;-79
2023/05/27 09:34:06;;;;;;;;;6.00;6.00;;;;;22.49;45.36;101977.56;5039115;28;45446;-79
2023/05/27 09:36:59;;;;;;;;;;;;;;;;;;;;;
2023/05/27 09:40:04;;;;;;;;;;;;;;;;;;;;;
2023/05/27 09:43:12;;;;;;;;;15.33;9.00;;;;;23.11;45.58;101996.84;5030490;28;67460;-79
2023/05/27 09:45:58;;;;;;;;;10.00;8.00;;;;;23.20;44.75;101988.00;5031777;28;45306;-79
2023/05/27 09:49:14;;;;;;;;;8.33;6.33;;;;;23.20;44.57;101961.00;5050197;28;47005;-79
2023/05/27 09:51:57;;;;;;;;;8.33;6.00;;;;;23.13;43.75;101935.53;4978304;28;45646;-79
2023/05/27 09:54:43;;;;;;;;;7.33;6.33;;;;;23.50;46.37;101981.97;5028179;28;45328;-79
2023/05/27 10:00:09;;;;;;;;;11.33;6.00;;;;;23.47;45.35;101933.63;5027241;28;46612;-79
2023/05/27 10:02:58;;;;;;;;;7.00;6.33;;;;;24.16;43.61;102028.69;5039361;28;45266;-79
2023/05/27 10:05:31;;;;;;;;;7.00;6.00;;;;;23.71;45.24;101930.72;5035896;28;45331;-80
2023/05/27 10:07:59;;;;;;;;;12.00;8.00;;;;;24.26;43.50;102021.50;5033649;28;45364;-80
2023/05/27 10:10:31;;;;;;;;;7.00;5.67;;;;;24.21;43.45;101989.44;5038177;28;45429;-79
2023/05/27 10:13:06;;;;;;;;;5.00;3.00;;;;;24.10;42.95;101953.47;5036605;28;45372;-80
2023/05/27 10:15:45;;;;;;;;;7.00;6.33;;;;;24.11;42.13;101960.63;5036954;28;45499;-80
2023/05/27 10:18:41;;;;;;;;;11.00;7.33;;;;;24.36;42.83;102017.88;5032630;28;45392;-80
2023/05/27 10:21:06;;;;;;;;;7.67;6.00;;;;;23.96;43.91;101922.22;5031678;28;46330;-79
2023/05/27 10:23:36;;;;;;;;;8.33;6.33;;;;;24.16;44.37;101934.06;5025883;28;45414;-79
2023/05/27 10:26:07;;;;;;;;;7.67;7.67;;;;;24.28;44.54;101914.06;5060592;28;45427;-80
2023/05/27 10:28:35;;;;;;;;;8.67;7.00;;;;;24.95;43.53;102000.16;5054907;28;45497;-79
2023/05/27 10:31:32;;;;;;;;;7.00;5.00;;;;;25.07;43.19;101994.50;5060746;28;46058;-79
2023/05/27 10:34:26;;;;;;;;;6.33;5.00;;;;;24.83;42.25;101948.00;5046973;28;45832;-80
2023/05/27 10:36:59;;;;;;;;;10.67;7.00;;;;;25.15;41.41;101986.56;5055223;28;45673;-80
2023/05/27 10:39:25;;;;;;;;;9.00;6.67;;;;;25.25;43.73;102000.13;5071262;28;45489;-80
2023/05/27 10:41:55;;;;;;;;;8.00;6.33;;;;;25.32;41.73;101993.19;5059727;28;45979;-79
2023/05/27 10:44:42;;;;;;;;;10.33;8.33;;;;;25.37;42.60;101993.59;5060222;28;45424;-80
2023/05/27 10:47:25;;;;;;;;;5.33;5.00;;;;;25.26;41.85;101972.91;5060982;28;45546;-81
2023/05/27 10:49:50;;;;;;;;;9.00;7.00;;;;;25.28;43.32;101946.56;5050753;28;45469;-79
2023/05/27 10:52:17;;;;;;;;;9.33;9.33;;;;;25.65;41.97;101983.84;5061162;28;46123;-79
2023/05/27 10:54:50;;;;;;;;;5.67;5.33;;;;;25.68;41.14;101975.44;5066371;28;45497;-79
2023/05/27 10:58:17;;;;;;;;;9.00;7.00;;;;;25.67;40.08;101969.16;5056342;28;45421;-79
2023/05/27 11:00:36;;;;;;;;;10.67;9.33;;;;;25.35;41.03;101908.94;5058729;27;45502;-79
2023/05/27 11:03:01;;;;;;;;;4.67;4.67;;;;;25.72;41.61;101960.63;5076518;28;46291;-80
2023/05/27 11:05:31;;;;;;;;;6.33;5.67;;;;;25.82;40.16;101959.59;5061231;28;45268;-80
2023/05/27 11:07:59;;;;;;;;;9.00;5.00;;;;;25.78;40.94;101962.75;5054253;28;45514;-80
2023/05/27 11:10:25;;;;;;;;;6.67;6.33;;;;;25.76;41.09;101937.63;5050096;28;45732;-80
2023/05/27 11:13:00;;;;;;;;;;;;;;;;;;;;;
2023/05/27 11:15:26;;;;;;;;;9.00;7.67;;;;;25.85;39.50;101951.19;5051837;28;71483;-80
2023/05/27 11:17:52;;;;;;;;;7.67;7.00;;;;;25.56;41.73;101885.28;5060946;28;45487;-79
2023/05/27 11:20:17;;;;;;;;;9.67;6.33;;;;;25.75;41.27;101906.13;5059602;28;45636;-79
2023/05/27 11:22:49;;;;;;;;;9.67;9.33;;;;;25.75;40.93;101898.81;5060186;28;45734;-79
2023/05/27 11:25:15;;;;;;;;;7.00;6.00;;;;;25.90;40.91;101900.13;5062152;28;45391;-79
2023/05/27 11:27:58;;;;;;;;;13.00;9.00;;;;;26.07;41.31;101943.75;5071016;28;45233;-78
2023/05/27 11:30:25;;;;;;;;;10.33;8.33;;;;;25.59;40.37;101860.63;5056591;28;45496;-79
2023/05/27 11:32:50;;;;;;;;;10.00;9.00;;;;;26.00;41.93;101891.97;5062404;28;48308;-79
2023/05/27 11:35:17;;;;;;;;;9.00;7.00;;;;;26.31;40.48;101915.16;5059172;28;45411;-79
2023/05/27 11:37:55;;;;;;;;;6.00;6.00;;;;;26.33;39.03;101899.63;5080526;28;45303;-79
2023/05/27 11:40:35;;;;;;;;;10.00;7.33;;;;;26.29;39.54;101889.19;5080180;28;45468;-79
2023/05/27 11:43:01;;;;;;;;;7.00;7.00;;;;;26.56;38.67;101932.69;5062995;28;46128;-79
2023/05/27 11:45:27;;;;;;;;;6.00;6.00;;;;;26.21;41.61;101830.25;5064241;28;45604;-79
2023/05/27 11:50:52;;;;;;;;;11.00;8.33;;;;;26.61;39.90;101845.34;5074846;28;45296;-81
2023/05/27 11:53:18;;;;;;;;;8.67;8.67;;;;;26.73;39.41;101845.00;5058659;28;48074;-80
2023/05/27 11:55:45;;;;;;;;;8.00;7.00;;;;;26.91;39.06;101880.38;5080151;28;45344;-80
2023/05/27 11:58:10;;;;;;;;;9.33;8.67;;;;;26.93;38.64;101864.78;5080909;28;45312;-80
2023/05/27 12:00:36;;;;;;;;;6.33;6.00;;;;;27.17;38.64;101881.34;5054655;28;45804;-79
2023/05/27 12:03:03;;;;;;;;;7.33;7.00;;;;;27.02;39.13;101831.31;5075462;28;46025;-80
2023/05/27 12:05:31;;;;;;;;;6.67;6.33;;;;;27.24;39.82;101863.44;5068037;28;45359;-80
2023/05/27 12:08:21;;;;;;;;;11.67;9.00;;;;;27.50;40.43;101903.44;5055158;28;45416;-80
2023/05/27 12:10:50;;;;;;;;;4.00;4.00;;;;;27.30;39.58;101851.09;5074367;28;45585;-79
2023/05/27 12:13:31;;;;;;;;;;;;;;;;;;;;;
2023/05/27 12:16:17;;;;;;;;;7.00;5.67;;;;;27.80;40.22;101882.16;5070290;28;73176;-81
2023/05/27 12:18:43;;;;;;;;;7.67;7.00;;;;;27.57;38.85;101848.31;5054454;28;45346;-80
2023/05/27 12:21:13;;;;;;;;;7.33;7.00;;;;;27.58;39.23;101820.13;5061205;28;45506;-79
2023/05/27 12:23:39;;;;;;;;;9.00;6.00;;;;;28.03;39.35;101860.75;5059479;28;46780;-79
2023/05/27 12:26:12;;;;;;;;;10.00;9.00;;;;;27.90;38.58;101828.53;5057016;28;45899;-80
2023/05/27 12:28:38;;;;;;;;;7.00;6.67;;;;;28.10;37.74;101850.97;5055304;28;45395;-80
2023/05/27 12:31:04;;;;;;;;;8.00;8.00;;;;;28.20;37.71;101848.13;5058782;28;45870;-80
2023/05/27 12:33:31;;;;;;;;;7.00;7.00;;;;;28.44;38.14;101851.81;5074772;28;46210;-80
2023/05/27 12:35:57;;;;;;;;;7.33;7.00;;;;;28.59;38.23;101860.22;5080034;28;45300;-79
2023/05/27 12:38:22;;;;;;;;;8.00;6.67;;;;;28.67;38.94;101830.34;5064407;28;45356;-80
2023/05/27 12:40:48;;;;;;;;;8.00;6.67;;;;;29.08;37.91;101854.97;5079830;28;45438;-79
2023/05/27 12:43:14;;;;;;;;;8.33;6.67;;;;;29.14;37.56;101851.56;5059795;28;47122;-80
2023/05/27 12:45:40;;;;;;;;;10.00;9.33;;;;;29.38;35.90;101854.38;5080513;28;45281;-80
2023/05/27 12:48:06;;;;;;;;;10.67;7.33;;;;;29.36;36.81;101812.78;5079641;28;45347;-80
2023/05/27 12:50:31;;;;;;;;;7.00;5.33;;;;;29.62;38.32;101827.09;5079251;28;45561;-82
2023/05/27 12:52:57;;;;;;;;;9.00;7.33;;;;;29.78;35.43;101846.19;5063282;27;47809;-80
2023/05/27 12:55:24;;;;;;;;;10.33;8.67;;;;;30.00;35.95;101849.25;5079246;28;45365;-80
2023/05/27 12:57:51;;;;;;;;;8.67;8.33;;;;;30.08;36.53;101844.63;5079872;28;45253;-80
2023/05/27 13:00:18;;;;;;;;;10.00;7.00;;;;;30.23;37.75;101820.22;5058349;28;45518;-80
2023/05/27 13:02:46;;;;;;;;;10.00;6.00;;;;;30.48;37.88;101832.78;5076221;28;46192;-79
2023/05/27 13:05:13;;;;;;;;;7.00;7.00;;;;;30.82;38.72;101832.44;5079683;28;45372;-79
2023/05/27 13:07:41;;;;;;;;;9.00;9.00;;;;;31.22;36.45;101825.88;5060673;28;45373;-79
2023/05/27 13:10:14;;;;;;;;;5.67;4.33;;;;;31.18;36.18;101833.63;5078598;27;45346;-79
2023/05/27 13:12:40;;;;;;;;;6.33;6.33;;;;;30.74;35.96;101821.56;5078454;28;45557;-80
2023/05/27 13:15:07;;;;;;;;;6.00;6.00;;;;;30.80;35.70;101818.94;5065738;28;45285;-80
2023/05/27 13:17:37;;;;;;;;;10.00;9.00;;;;;30.89;35.42;101822.50;5048512;28;45320;-79
2023/05/27 13:20:02;;;;;;;;;9.33;8.00;;;;;31.04;37.66;101856.25;5072274;28;45491;-81
2023/05/27 13:22:28;;;;;;;;;9.00;8.00;;;;;30.95;36.78;101817.22;5072016;28;45489;-80
2023/05/27 13:24:56;;;;;;;;;6.00;6.00;;;;;30.84;35.76;101803.91;5051268;28;45372;-80
2023/05/27 13:27:22;;;;;;;;;8.33;7.33;;;;;30.74;35.77;101791.50;5061649;28;45261;-80
2023/05/27 13:29:47;;;;;;;;;7.33;7.00;;;;;30.54;35.69;101798.44;5073767;28;45367;-80
2023/05/27 13:32:13;;;;;;;;;8.00;8.00;;;;;30.05;34.80;101793.13;5054946;28;48370;-82
2023/05/27 13:34:38;;;;;;;;;10.00;7.67;;;;;29.60;37.82;101803.75;5073781;28;45481;-79
2023/05/27 13:37:04;;;;;;;;;5.67;5.00;;;;;29.43;38.08;101822.84;5072911;28;45304;-80
2023/05/27 13:39:30;;;;;;;;;7.00;7.00;;;;;29.05;37.20;101803.53;5053462;28;45546;-80
2023/05/27 13:41:55;;;;;;;;;8.67;6.67;;;;;28.90;37.70;101811.50;5079262;28;45406;-80
2023/05/27 13:44:36;;;;;;;;;8.00;7.00;;;;;28.52;37.17;101795.72;5057772;28;45392;-80
2023/05/27 13:47:01;;;;;;;;;9.00;8.33;;;;;28.12;40.26;101755.56;5054038;28;45507;-79
2023/05/27 13:49:36;;;;;;;;;8.33;7.33;;;;;27.80;38.27;101721.72;5079024;28;45261;-81
2023/05/27 13:52:01;;;;;;;;;6.00;6.00;;;;;28.02;39.68;101817.38;5079888;27;45426;-80
2023/05/27 13:54:27;;;;;;;;;10.00;9.00;;;;;27.53;39.98;101740.06;5084177;27;45280;-80
2023/05/27 13:56:53;;;;;;;;;10.67;8.67;;;;;27.49;40.65;101752.28;5079050;28;45292;-80